sensor_id;sensor_type;location;lat;lon;timestamp;pressure;altitude;pressure_sealevel;temperature
48854;BMP280;34673;52.808;17.856;2023-02-07T00:01:23;102935.34;;;-1.19
48854;BMP280;34673;52.808;17.856;2023-02-07T00:03:51;102954.88;;;-1.08
48854;BMP280;34673;52.808;17.856;2023-02-07T00:06:21;102943.69;;;-1.10
48854;BMP280;34673;52.808;17.856;2023-02-07T00:08:48;102933.53;;;-1.10
48854;BMP280;34673;52.808;17.856;2023-02-07T00:11:17;102926.69;;;-1.11
48854;BMP280;34673;52.808;17.856;2023-02-07T00:13:48;102919.31;;;-1.18
48854;BMP280;34673;52.808;17.856;2023-02-07T00:16:16;102932.16;;;-1.17
48854;BMP280;34673;52.808;17.856;2023-02-07T00:18:43;102896.25;;;-1.31
48854;BMP280;34673;52.808;17.856;2023-02-07T00:21:12;102927.72;;;-1.19
48854;BMP280;34673;52.808;17.856;2023-02-07T00:23:40;102922.88;;;-1.16
48854;BMP280;34673;52.808;17.856;2023-02-07T00:26:09;102929.22;;;-1.11
48854;BMP280;34673;52.808;17.856;2023-02-07T00:28:37;102923.38;;;-1.10
48854;BMP280;34673;52.808;17.856;2023-02-07T00:31:14;102918.94;;;-1.13
48854;BMP280;34673;52.808;17.856;2023-02-07T00:33:43;102926.69;;;-1.11
48854;BMP280;34673;52.808;17.856;2023-02-07T00:36:14;102932.66;;;-1.10
48854;BMP280;34673;52.808;17.856;2023-02-07T00:38:43;102924.88;;;-1.12
48854;BMP280;34673;52.808;17.856;2023-02-07T00:41:11;102931.75;;;-1.11
48854;BMP280;34673;52.808;17.856;2023-02-07T00:43:46;102933.28;;;-1.13
48854;BMP280;34673;52.808;17.856;2023-02-07T00:46:14;102929.72;;;-1.15
48854;BMP280;34673;52.808;17.856;2023-02-07T00:48:42;102935.94;;;-1.12
48854;BMP280;34673;52.808;17.856;2023-02-07T00:51:11;102936.56;;;-1.14
48854;BMP280;34673;52.808;17.856;2023-02-07T00:53:39;102932.78;;;-1.19
48854;BMP280;34673;52.808;17.856;2023-02-07T00:56:07;102924.66;;;-1.15
48854;BMP280;34673;52.808;17.856;2023-02-07T00:58:35;102929.72;;;-1.15
48854;BMP280;34673;52.808;17.856;2023-02-07T01:01:03;102926.41;;;-1.14
48854;BMP280;34673;52.808;17.856;2023-02-07T01:03:31;102928.94;;;-1.14
48854;BMP280;34673;52.808;17.856;2023-02-07T01:05:58;102939.88;;;-1.15
48854;BMP280;34673;52.808;17.856;2023-02-07T01:08:26;102932.78;;;-1.19
48854;BMP280;34673;52.808;17.856;2023-02-07T01:10:53;102934.03;;;-1.14
48854;BMP280;34673;52.808;17.856;2023-02-07T01:13:20;102925.66;;;-1.13
48854;BMP280;34673;52.808;17.856;2023-02-07T01:15:48;102935.28;;;-1.09
48854;BMP280;34673;52.808;17.856;2023-02-07T01:18:16;102930.44;;;-1.06
48854;BMP280;34673;52.808;17.856;2023-02-07T01:20:43;102925.66;;;-1.03
48854;BMP280;34673;52.808;17.856;2023-02-07T01:23:12;102930.72;;;-1.03
48854;BMP280;34673;52.808;17.856;2023-02-07T01:25:40;102923.22;;;-1.01
48854;BMP280;34673;52.808;17.856;2023-02-07T01:28:07;102920.56;;;-1.03
48854;BMP280;34673;52.808;17.856;2023-02-07T01:30:38;102917.75;;;-1.06
48854;BMP280;34673;52.808;17.856;2023-02-07T01:33:06;102926.63;;;-1.01
48854;BMP280;34673;52.808;17.856;2023-02-07T01:35:34;102921.03;;;-0.97
48854;BMP280;34673;52.808;17.856;2023-02-07T01:38:01;102911.66;;;-0.98
48854;BMP280;34673;52.808;17.856;2023-02-07T01:40:29;102910.88;;;-0.97
48854;BMP280;34673;52.808;17.856;2023-02-07T01:42:57;102915.44;;;-0.93
48854;BMP280;34673;52.808;17.856;2023-02-07T01:48:11;102924.84;;;-0.92
48854;BMP280;34673;52.808;17.856;2023-02-07T01:50:42;102928.13;;;-0.93
48854;BMP280;34673;52.808;17.856;2023-02-07T01:53:11;102911.28;;;-1.02
48854;BMP280;34673;52.808;17.856;2023-02-07T01:55:41;102924.84;;;-0.92
48854;BMP280;34673;52.808;17.856;2023-02-07T01:58:10;102926.59;;;-0.91
48854;BMP280;34673;52.808;17.856;2023-02-07T02:00:37;102921.28;;;-0.94
48854;BMP280;34673;52.808;17.856;2023-02-07T02:03:05;102920.09;;;-0.87
48854;BMP280;34673;52.808;17.856;2023-02-07T02:05:34;102922.00;;;-0.84
48854;BMP280;34673;52.808;17.856;2023-02-07T02:08:03;102927.09;;;-0.84
48854;BMP280;34673;52.808;17.856;2023-02-07T02:21:23;102915.41;;;-0.82
48854;BMP280;34673;52.808;17.856;2023-02-07T02:27:15;102927.34;;;-0.81
48854;BMP280;34673;52.808;17.856;2023-02-07T02:30:02;102920.72;;;-0.79
48854;BMP280;34673;52.808;17.856;2023-02-07T02:43:32;102907.91;;;-0.81
48854;BMP280;34673;52.808;17.856;2023-02-07T02:46:09;102909.69;;;-0.80
48854;BMP280;34673;52.808;17.856;2023-02-07T02:48:39;102900.38;;;-0.79
48854;BMP280;34673;52.808;17.856;2023-02-07T02:51:08;102906.50;;;-0.77
48854;BMP280;34673;52.808;17.856;2023-02-07T02:53:35;102895.06;;;-0.82
48854;BMP280;34673;52.808;17.856;2023-02-07T02:56:14;102896.47;;;-0.76
48854;BMP280;34673;52.808;17.856;2023-02-07T03:07:38;102893.00;;;-0.76
48854;BMP280;34673;52.808;17.856;2023-02-07T03:12:54;102879.66;;;-0.74
48854;BMP280;34673;52.808;17.856;2023-02-07T03:24:21;102882.56;;;-0.69
48854;BMP280;34673;52.808;17.856;2023-02-07T03:26:52;102889.41;;;-0.68
48854;BMP280;34673;52.808;17.856;2023-02-07T03:29:21;102897.94;;;-0.68
48854;BMP280;34673;52.808;17.856;2023-02-07T03:31:52;102897.81;;;-0.69
48854;BMP280;34673;52.808;17.856;2023-02-07T03:34:26;102901.38;;;-0.67
48854;BMP280;34673;52.808;17.856;2023-02-07T03:37:16;102899.84;;;-0.65
48854;BMP280;34673;52.808;17.856;2023-02-07T03:39:44;102898.03;;;-0.66
48854;BMP280;34673;52.808;17.856;2023-02-07T03:42:42;102894.75;;;-0.65
48854;BMP280;34673;52.808;17.856;2023-02-07T03:45:13;102899.84;;;-0.65
48854;BMP280;34673;52.808;17.856;2023-02-07T03:47:42;102913.53;;;-0.63
48854;BMP280;34673;52.808;17.856;2023-02-07T03:50:09;102898.28;;;-0.63
48854;BMP280;34673;52.808;17.856;2023-02-07T03:52:37;102897.00;;;-0.58
48854;BMP280;34673;52.808;17.856;2023-02-07T03:55:06;102898.78;;;-0.57
48854;BMP280;34673;52.808;17.856;2023-02-07T03:57:33;102884.81;;;-0.62
48854;BMP280;34673;52.808;17.856;2023-02-07T04:00:01;102893.69;;;-0.57
48854;BMP280;34673;52.808;17.856;2023-02-07T04:02:38;102888.63;;;-0.57
48854;BMP280;34673;52.808;17.856;2023-02-07T04:05:05;102892.78;;;-0.57
48854;BMP280;34673;52.808;17.856;2023-02-07T04:07:33;102883.53;;;-0.57
48854;BMP280;34673;52.808;17.856;2023-02-07T04:10:00;102873.38;;;-0.57
48854;BMP280;34673;52.808;17.856;2023-02-07T04:12:28;102883.53;;;-0.57
48854;BMP280;34673;52.808;17.856;2023-02-07T04:14:59;102881.97;;;-0.55
48854;BMP280;34673;52.808;17.856;2023-02-07T04:17:27;102879.34;;;-0.56
48854;BMP280;34673;52.808;17.856;2023-02-07T04:19:57;102875.13;;;-0.56
48854;BMP280;34673;52.808;17.856;2023-02-07T04:22:24;102864.97;;;-0.56
48854;BMP280;34673;52.808;17.856;2023-02-07T04:24:51;102875.38;;;-0.53
48854;BMP280;34673;52.808;17.856;2023-02-07T04:27:19;102872.03;;;-0.52
48854;BMP280;34673;52.808;17.856;2023-02-07T04:29:46;102868.28;;;-0.57
48854;BMP280;34673;52.808;17.856;2023-02-07T04:32:13;102864.72;;;-0.59
48854;BMP280;34673;52.808;17.856;2023-02-07T04:34:40;102872.03;;;-0.52
48854;BMP280;34673;52.808;17.856;2023-02-07T04:37:07;102853.69;;;-0.59
48854;BMP280;34673;52.808;17.856;2023-02-07T04:39:34;102862.19;;;-0.59
48854;BMP280;34673;52.808;17.856;2023-02-07T04:42:02;102859.66;;;-0.59
48854;BMP280;34673;52.808;17.856;2023-02-07T04:44:29;102868.75;;;-0.51
48854;BMP280;34673;52.808;17.856;2023-02-07T04:46:56;102867.72;;;-0.53
48854;BMP280;34673;52.808;17.856;2023-02-07T04:49:24;102863.44;;;-0.54
48854;BMP280;34673;52.808;17.856;2023-02-07T04:51:51;102868.50;;;-0.54
48854;BMP280;34673;52.808;17.856;2023-02-07T04:54:18;102876.47;;;-0.49
48854;BMP280;34673;52.808;17.856;2023-02-07T04:56:46;102865.59;;;-0.58
48854;BMP280;34673;52.808;17.856;2023-02-07T04:59:13;102869.81;;;-0.59
48854;BMP280;34673;52.808;17.856;2023-02-07T05:01:40;102866.50;;;-0.58
48854;BMP280;34673;52.808;17.856;2023-02-07T05:04:07;102876.88;;;-0.55
48854;BMP280;34673;52.808;17.856;2023-02-07T05:06:34;102877.13;;;-0.52
48854;BMP280;34673;52.808;17.856;2023-02-07T05:09:01;102870.28;;;-0.53
48854;BMP280;34673;52.808;17.856;2023-02-07T05:11:29;102865.19;;;-0.53
48854;BMP280;34673;52.808;17.856;2023-02-07T05:13:56;102870.41;;;-0.51
48854;BMP280;34673;52.808;17.856;2023-02-07T05:16:23;102870.50;;;-0.50
48854;BMP280;34673;52.808;17.856;2023-02-07T05:18:50;102872.31;;;-0.49
48854;BMP280;34673;52.808;17.856;2023-02-07T05:21:17;102875.81;;;-0.47
48854;BMP280;34673;52.808;17.856;2023-02-07T05:23:44;102872.16;;;-0.50
48854;BMP280;34673;52.808;17.856;2023-02-07T05:26:11;102879.94;;;-0.49
48854;BMP280;34673;52.808;17.856;2023-02-07T05:28:39;102878.91;;;-0.51
48854;BMP280;34673;52.808;17.856;2023-02-07T05:31:06;102880.69;;;-0.50
48854;BMP280;34673;52.808;17.856;2023-02-07T05:33:33;102871.16;;;-0.52
48854;BMP280;34673;52.808;17.856;2023-02-07T05:36:00;102875.72;;;-0.48
48854;BMP280;34673;52.808;17.856;2023-02-07T05:38:30;102869.50;;;-0.52
48854;BMP280;34673;52.808;17.856;2023-02-07T05:40:58;102870.28;;;-0.53
48854;BMP280;34673;52.808;17.856;2023-02-07T05:43:25;102870.50;;;-0.50
48854;BMP280;34673;52.808;17.856;2023-02-07T05:45:52;102875.59;;;-0.50
48854;BMP280;34673;52.808;17.856;2023-02-07T05:48:20;102868.09;;;-0.48
48854;BMP280;34673;52.808;17.856;2023-02-07T05:50:47;102873.84;;;-0.51
48854;BMP280;34673;52.808;17.856;2023-02-07T05:53:14;102872.03;;;-0.52
48854;BMP280;34673;52.808;17.856;2023-02-07T05:55:41;102866.72;;;-0.55
48854;BMP280;34673;52.808;17.856;2023-02-07T05:58:08;102863.44;;;-0.54
48854;BMP280;34673;52.808;17.856;2023-02-07T06:00:35;102874.06;;;-0.48
48854;BMP280;34673;52.808;17.856;2023-02-07T06:03:02;102869.75;;;-0.49
48854;BMP280;34673;52.808;17.856;2023-02-07T06:05:29;102868.75;;;-0.51
48854;BMP280;34673;52.808;17.856;2023-02-07T06:07:58;102874.94;;;-0.47
48854;BMP280;34673;52.808;17.856;2023-02-07T06:10:25;102888.03;;;-0.42
48854;BMP280;34673;52.808;17.856;2023-02-07T06:12:53;102887.78;;;-0.46
48854;BMP280;34673;52.808;17.856;2023-02-07T06:15:20;102893.84;;;-0.43
48854;BMP280;34673;52.808;17.856;2023-02-07T06:17:47;102891.31;;;-0.43
48854;BMP280;34673;52.808;17.856;2023-02-07T06:20:14;102891.31;;;-0.43
48854;BMP280;34673;52.808;17.856;2023-02-07T06:22:41;102887.56;;;-0.49
48854;BMP280;34673;52.808;17.856;2023-02-07T06:25:09;102906.47;;;-0.45
48854;BMP280;34673;52.808;17.856;2023-02-07T06:27:39;102908.13;;;-0.46
48854;BMP280;34673;52.808;17.856;2023-02-07T06:30:09;102909.66;;;-0.48
48854;BMP280;34673;52.808;17.856;2023-02-07T06:32:36;102906.22;;;-0.48
48854;BMP280;34673;52.808;17.856;2023-02-07T06:35:04;102908.88;;;-0.47
48854;BMP280;34673;52.808;17.856;2023-02-07T06:37:32;102904.81;;;-0.45
48854;BMP280;34673;52.808;17.856;2023-02-07T06:39:59;102894.00;;;-0.42
48854;BMP280;34673;52.808;17.856;2023-02-07T06:42:26;102882.06;;;-0.43
48854;BMP280;34673;52.808;17.856;2023-02-07T06:44:53;102884.69;;;-0.41
48854;BMP280;34673;52.808;17.856;2023-02-07T06:47:21;102874.53;;;-0.41
48854;BMP280;34673;52.808;17.856;2023-02-07T06:49:48;102877.44;;;-0.37
48854;BMP280;34673;52.808;17.856;2023-02-07T06:52:16;102873.47;;;-0.33
48854;BMP280;34673;52.808;17.856;2023-02-07T06:54:43;102877.00;;;-0.31
48854;BMP280;34673;52.808;17.856;2023-02-07T06:57:10;102885.44;;;-0.32
48854;BMP280;34673;52.808;17.856;2023-02-07T06:59:37;102892.50;;;-0.28
48854;BMP280;34673;52.808;17.856;2023-02-07T07:02:04;102902.03;;;-0.26
48854;BMP280;34673;52.808;17.856;2023-02-07T07:04:31;102894.03;;;-0.30
48854;BMP280;34673;52.808;17.856;2023-02-07T07:06:59;102896.59;;;-0.30
48854;BMP280;34673;52.808;17.856;2023-02-07T07:09:26;102902.22;;;-0.34
48854;BMP280;34673;52.808;17.856;2023-02-07T07:11:53;102878.59;;;-0.43
48854;BMP280;34673;52.808;17.856;2023-02-07T07:14:20;102894.47;;;-0.36
48854;BMP280;34673;52.808;17.856;2023-02-07T07:16:47;102906.53;;;-0.33
48854;BMP280;34673;52.808;17.856;2023-02-07T07:19:14;102896.59;;;-0.30
48854;BMP280;34673;52.808;17.856;2023-02-07T07:21:42;102885.94;;;-0.36
48854;BMP280;34673;52.808;17.856;2023-02-07T07:24:09;102907.03;;;-0.27
48854;BMP280;34673;52.808;17.856;2023-02-07T07:26:36;102901.16;;;-0.26
48854;BMP280;34673;52.808;17.856;2023-02-07T07:29:16;102896.59;;;-0.30
48854;BMP280;34673;52.808;17.856;2023-02-07T07:31:44;102914.88;;;-0.24
48854;BMP280;34673;52.808;17.856;2023-02-07T07:34:12;102906.22;;;-0.26
48854;BMP280;34673;52.808;17.856;2023-02-07T07:36:40;102915.63;;;-0.25
48854;BMP280;34673;52.808;17.856;2023-02-07T07:39:07;102916.19;;;-0.29
48854;BMP280;34673;52.808;17.856;2023-02-07T07:41:35;102930.66;;;-0.28
48854;BMP280;34673;52.808;17.856;2023-02-07T07:44:02;102938.41;;;-0.27
48854;BMP280;34673;52.808;17.856;2023-02-07T07:46:29;102942.50;;;-0.29
48854;BMP280;34673;52.808;17.856;2023-02-07T07:48:56;102948.69;;;-0.25
48854;BMP280;34673;52.808;17.856;2023-02-07T07:51:23;102958.88;;;-0.25
48854;BMP280;34673;52.808;17.856;2023-02-07T07:53:51;102942.91;;;-0.34
48854;BMP280;34673;52.808;17.856;2023-02-07T07:56:18;102957.09;;;-0.26
48854;BMP280;34673;52.808;17.856;2023-02-07T07:58:45;102963.50;;;-0.31
48854;BMP280;34673;52.808;17.856;2023-02-07T08:01:14;102956.25;;;-0.37
48854;BMP280;34673;52.808;17.856;2023-02-07T08:03:41;102967.69;;;-0.32
48854;BMP280;34673;52.808;17.856;2023-02-07T08:06:08;102968.56;;;-0.31
48854;BMP280;34673;52.808;17.856;2023-02-07T08:08:35;102949.28;;;-0.39
48854;BMP280;34673;52.808;17.856;2023-02-07T08:11:04;102965.78;;;-0.34
48854;BMP280;34673;52.808;17.856;2023-02-07T08:13:32;102975.41;;;-0.30
48854;BMP280;34673;52.808;17.856;2023-02-07T08:16:00;102979.88;;;-0.28
48854;BMP280;34673;52.808;17.856;2023-02-07T08:18:28;102971.81;;;-0.22
48854;BMP280;34673;52.808;17.856;2023-02-07T08:20:55;102971.06;;;-0.21
48854;BMP280;34673;52.808;17.856;2023-02-07T08:23:23;102977.91;;;-0.20
48854;BMP280;34673;52.808;17.856;2023-02-07T08:25:50;102978.16;;;-0.17
48854;BMP280;34673;52.808;17.856;2023-02-07T08:28:18;102974.88;;;-0.16
48854;BMP280;34673;52.808;17.856;2023-02-07T08:30:45;102971.78;;;-0.12
48854;BMP280;34673;52.808;17.856;2023-02-07T08:33:15;102978.88;;;-0.08
48854;BMP280;34673;52.808;17.856;2023-02-07T08:35:42;102969.22;;;-0.12
48854;BMP280;34673;52.808;17.856;2023-02-07T08:38:10;102974.03;;;-0.05
48854;BMP280;34673;52.808;17.856;2023-02-07T08:40:37;102975.78;;;-0.04
48854;BMP280;34673;52.808;17.856;2023-02-07T08:43:05;102968.94;;;-0.05
48854;BMP280;34673;52.808;17.856;2023-02-07T08:45:44;102979.34;;;-0.02
48854;BMP280;34673;52.808;17.856;2023-02-07T08:48:13;102986.19;;;-0.01
48854;BMP280;34673;52.808;17.856;2023-02-07T08:50:40;102969.19;;;-0.02
48854;BMP280;34673;52.808;17.856;2023-02-07T08:53:07;102975.88;;;0.08
48854;BMP280;34673;52.808;17.856;2023-02-07T08:55:35;102978.75;;;0.13
48854;BMP280;34673;52.808;17.856;2023-02-07T08:58:03;102978.00;;;0.14
48854;BMP280;34673;52.808;17.856;2023-02-07T09:00:30;102978.44;;;0.20
48854;BMP280;34673;52.808;17.856;2023-02-07T09:02:57;102976.13;;;0.23
48854;BMP280;34673;52.808;17.856;2023-02-07T09:05:24;102976.59;;;0.29
48854;BMP280;34673;52.808;17.856;2023-02-07T09:07:52;102968.22;;;0.30
48854;BMP280;34673;52.808;17.856;2023-02-07T09:10:19;102974.28;;;0.32
48854;BMP280;34673;52.808;17.856;2023-02-07T09:12:46;102975.28;;;0.34
48854;BMP280;34673;52.808;17.856;2023-02-07T09:15:13;102981.09;;;0.43
48854;BMP280;34673;52.808;17.856;2023-02-07T09:17:40;102976.44;;;0.50
48854;BMP280;34673;52.808;17.856;2023-02-07T09:20:08;102982.66;;;0.53
48854;BMP280;34673;52.808;17.856;2023-02-07T09:22:35;102982.22;;;0.59
48854;BMP280;34673;52.808;17.856;2023-02-07T09:25:23;102975.81;;;0.64
48854;BMP280;34673;52.808;17.856;2023-02-07T09:27:50;102967.66;;;0.68
48854;BMP280;34673;52.808;17.856;2023-02-07T09:30:18;102969.63;;;0.72
48854;BMP280;34673;52.808;17.856;2023-02-07T09:32:45;102961.53;;;0.66
48854;BMP280;34673;52.808;17.856;2023-02-07T09:35:12;102953.25;;;0.69
48854;BMP280;34673;52.808;17.856;2023-02-07T09:37:39;102959.22;;;0.69
48854;BMP280;34673;52.808;17.856;2023-02-07T09:40:16;102981.50;;;0.83
48854;BMP280;34673;52.808;17.856;2023-02-07T09:42:50;102986.28;;;0.91
48854;BMP280;34673;52.808;17.856;2023-02-07T09:45:24;102977.75;;;0.90
48854;BMP280;34673;52.808;17.856;2023-02-07T09:47:59;102973.75;;;0.94
48854;BMP280;34673;52.808;17.856;2023-02-07T09:50:31;102978.53;;;1.01
48854;BMP280;34673;52.808;17.856;2023-02-07T09:53:22;102977.97;;;1.05
48854;BMP280;34673;52.808;17.856;2023-02-07T09:55:58;102967.22;;;1.09
48854;BMP280;34673;52.808;17.856;2023-02-07T10:01:13;102969.91;;;1.22
48854;BMP280;34673;52.808;17.856;2023-02-07T10:06:31;102965.91;;;1.26
48854;BMP280;34673;52.808;17.856;2023-02-07T10:08:59;102961.34;;;1.33
48854;BMP280;34673;52.808;17.856;2023-02-07T10:31:36;102911.19;;;1.83
48854;BMP280;34673;52.808;17.856;2023-02-07T10:34:18;102919.38;;;1.90
48854;BMP280;34673;52.808;17.856;2023-02-07T10:36:50;102924.13;;;1.97
48854;BMP280;34673;52.808;17.856;2023-02-07T10:39:20;102926.88;;;2.00
48854;BMP280;34673;52.808;17.856;2023-02-07T10:41:50;102921.75;;;2.00
48854;BMP280;34673;52.808;17.856;2023-02-07T10:44:22;102924.44;;;2.02
48854;BMP280;34673;52.808;17.856;2023-02-07T10:46:57;102921.09;;;2.03
48854;BMP280;34673;52.808;17.856;2023-02-07T10:49:28;102922.69;;;2.01
48854;BMP280;34673;52.808;17.856;2023-02-07T10:51:58;102913.81;;;1.96
48854;BMP280;34673;52.808;17.856;2023-02-07T10:54:28;102910.25;;;1.94
48854;BMP280;34673;52.808;17.856;2023-02-07T10:56:58;102900.41;;;1.87
48854;BMP280;34673;52.808;17.856;2023-02-07T11:05:08;102898.50;;;1.96
48854;BMP280;34673;52.808;17.856;2023-02-07T11:08:03;102893.59;;;1.99
48854;BMP280;34673;52.808;17.856;2023-02-07T11:10:40;102902.81;;;1.97
48854;BMP280;34673;52.808;17.856;2023-02-07T11:13:19;102894.94;;;1.94
48854;BMP280;34673;52.808;17.856;2023-02-07T11:15:57;102900.84;;;1.93
48854;BMP280;34673;52.808;17.856;2023-02-07T11:21:38;102896.09;;;1.86
48854;BMP280;34673;52.808;17.856;2023-02-07T11:27:06;102903.91;;;1.75
48854;BMP280;34673;52.808;17.856;2023-02-07T11:30:04;102892.34;;;1.81
48854;BMP280;34673;52.808;17.856;2023-02-07T11:32:32;102896.09;;;1.86
48854;BMP280;34673;52.808;17.856;2023-02-07T11:35:07;102900.19;;;1.84
48854;BMP280;34673;52.808;17.856;2023-02-07T11:37:37;102902.53;;;1.81
48854;BMP280;34673;52.808;17.856;2023-02-07T11:40:30;102894.88;;;1.81
48854;BMP280;34673;52.808;17.856;2023-02-07T11:43:15;102893.44;;;1.84
48854;BMP280;34673;52.808;17.856;2023-02-07T11:45:50;102896.31;;;1.89
48854;BMP280;34673;52.808;17.856;2023-02-07T11:48:20;102894.34;;;1.85
48854;BMP280;34673;52.808;17.856;2023-02-07T11:50:53;102883.69;;;1.78
48854;BMP280;34673;52.808;17.856;2023-02-07T11:53:24;102890.59;;;1.80
48854;BMP280;34673;52.808;17.856;2023-02-07T11:55:54;102889.94;;;1.70
48854;BMP280;34673;52.808;17.856;2023-02-07T11:58:38;102875.28;;;1.68
48854;BMP280;34673;52.808;17.856;2023-02-07T12:01:07;102864.00;;;1.64
48854;BMP280;34673;52.808;17.856;2023-02-07T12:03:46;102871.53;;;1.63
48854;BMP280;34673;52.808;17.856;2023-02-07T12:06:18;102875.75;;;1.62
48854;BMP280;34673;52.808;17.856;2023-02-07T12:08:46;102879.09;;;1.61
48854;BMP280;34673;52.808;17.856;2023-02-07T12:11:18;102887.75;;;1.63
48854;BMP280;34673;52.808;17.856;2023-02-07T12:13:50;102888.84;;;1.67
48854;BMP280;34673;52.808;17.856;2023-02-07T12:16:25;102891.72;;;1.71
48854;BMP280;34673;52.808;17.856;2023-02-07T12:19:22;102890.72;;;1.69
48854;BMP280;34673;52.808;17.856;2023-02-07T12:24:30;102886.63;;;1.71
48854;BMP280;34673;52.808;17.856;2023-02-07T12:27:16;102889.38;;;1.74
48854;BMP280;34673;52.808;17.856;2023-02-07T12:30:14;102895.81;;;1.69
48854;BMP280;34673;52.808;17.856;2023-02-07T12:35:30;102890.06;;;1.60
48854;BMP280;34673;52.808;17.856;2023-02-07T12:38:25;102901.28;;;1.62
48854;BMP280;34673;52.808;17.856;2023-02-07T12:44:27;102881.53;;;1.60
48854;BMP280;34673;52.808;17.856;2023-02-07T12:55:54;102871.38;;;1.48
48854;BMP280;34673;52.808;17.856;2023-02-07T12:59:01;102879.81;;;1.47
48854;BMP280;34673;52.808;17.856;2023-02-07T13:09:58;102876.47;;;1.48
48854;BMP280;34673;52.808;17.856;2023-02-07T13:12:43;102876.91;;;1.54
48854;BMP280;34673;52.808;17.856;2023-02-07T13:18:56;102885.22;;;1.51
48854;BMP280;34673;52.808;17.856;2023-02-07T13:24:18;102871.38;;;1.48
48854;BMP280;34673;52.808;17.856;2023-02-07T13:26:52;102878.44;;;1.52
48854;BMP280;34673;52.808;17.856;2023-02-07T13:29:21;102878.78;;;1.57
48854;BMP280;34673;52.808;17.856;2023-02-07T13:31:53;102875.22;;;1.54
48854;BMP280;34673;52.808;17.856;2023-02-07T13:34:24;102872.00;;;1.57
48854;BMP280;34673;52.808;17.856;2023-02-07T13:36:52;102874.22;;;1.64
48854;BMP280;34673;52.808;17.856;2023-02-07T13:39:38;102879.78;;;1.59
48854;BMP280;34673;52.808;17.856;2023-02-07T13:45:14;102873.72;;;1.45
48854;BMP280;34673;52.808;17.856;2023-02-07T13:47:46;102878.03;;;1.46
48854;BMP280;34673;52.808;17.856;2023-02-07T13:56:10;102872.50;;;1.40
48854;BMP280;34673;52.808;17.856;2023-02-07T13:58:56;102864.66;;;1.37
48854;BMP280;34673;52.808;17.856;2023-02-07T14:01:49;102874.47;;;1.44
48854;BMP280;34673;52.808;17.856;2023-02-07T14:04:17;102871.06;;;1.43
48854;BMP280;34673;52.808;17.856;2023-02-07T14:06:59;102871.63;;;1.39
48854;BMP280;34673;52.808;17.856;2023-02-07T14:09:33;102865.19;;;1.32
48854;BMP280;34673;52.808;17.856;2023-02-07T14:12:05;102878.06;;;1.34
48854;BMP280;34673;52.808;17.856;2023-02-07T14:14:37;102888.72;;;1.28
48854;BMP280;34673;52.808;17.856;2023-02-07T14:17:05;102870.09;;;1.29
48854;BMP280;34673;52.808;17.856;2023-02-07T14:40:33;102871.03;;;0.95
48854;BMP280;34673;52.808;17.856;2023-02-07T14:43:16;102875.25;;;0.94
48854;BMP280;34673;52.808;17.856;2023-02-07T14:46:06;102880.25;;;0.93
48854;BMP280;34673;52.808;17.856;2023-02-07T14:51:12;102883.25;;;0.87
48854;BMP280;34673;52.808;17.856;2023-02-07T14:53:41;102879.47;;;0.82
48854;BMP280;34673;52.808;17.856;2023-02-07T14:56:37;102887.44;;;0.86
48854;BMP280;34673;52.808;17.856;2023-02-07T14:59:08;102882.91;;;0.82
48854;BMP280;34673;52.808;17.856;2023-02-07T15:01:38;102886.34;;;0.83
48854;BMP280;34673;52.808;17.856;2023-02-07T15:04:08;102892.44;;;0.85
48854;BMP280;34673;52.808;17.856;2023-02-07T15:06:43;102895.88;;;0.85
48854;BMP280;34673;52.808;17.856;2023-02-07T15:09:40;102905.63;;;0.79
48854;BMP280;34673;52.808;17.856;2023-02-07T15:12:07;102906.38;;;0.78
48854;BMP280;34673;52.808;17.856;2023-02-07T15:14:53;102906.94;;;0.74
48854;BMP280;34673;52.808;17.856;2023-02-07T15:17:24;102906.94;;;0.74
48854;BMP280;34673;52.808;17.856;2023-02-07T15:20:01;102908.03;;;0.66
48854;BMP280;34673;52.808;17.856;2023-02-07T15:22:29;102909.59;;;0.64
48854;BMP280;34673;52.808;17.856;2023-02-07T15:24:57;102914.91;;;0.67
48854;BMP280;34673;52.808;17.856;2023-02-07T15:27:27;102904.94;;;0.70
48854;BMP280;34673;52.808;17.856;2023-02-07T15:30:05;102901.63;;;0.71
48854;BMP280;34673;52.808;17.856;2023-02-07T15:32:42;102901.84;;;0.74
48854;BMP280;34673;52.808;17.856;2023-02-07T15:35:17;102898.06;;;0.69
48854;BMP280;34673;52.808;17.856;2023-02-07T15:37:45;102911.25;;;0.75
48854;BMP280;34673;52.808;17.856;2023-02-07T15:40:15;102903.59;;;0.75
48854;BMP280;34673;52.808;17.856;2023-02-07T15:42:56;102905.16;;;0.73
48854;BMP280;34673;52.808;17.856;2023-02-07T15:45:28;102910.03;;;0.70
48854;BMP280;34673;52.808;17.856;2023-02-07T15:48:05;102909.28;;;0.71
48854;BMP280;34673;52.808;17.856;2023-02-07T15:50:36;102908.94;;;0.66
48854;BMP280;34673;52.808;17.856;2023-02-07T15:53:05;102911.59;;;0.68
48854;BMP280;34673;52.808;17.856;2023-02-07T15:55:46;102914.47;;;0.61
48854;BMP280;34673;52.808;17.856;2023-02-07T15:58:22;102920.66;;;0.64
48854;BMP280;34673;52.808;17.856;2023-02-07T16:00:59;102923.09;;;0.63
48854;BMP280;34673;52.808;17.856;2023-02-07T16:03:30;102925.44;;;0.60
48854;BMP280;34673;52.808;17.856;2023-02-07T16:06:21;102934.63;;;0.58
48854;BMP280;34673;52.808;17.856;2023-02-07T16:08:51;102934.63;;;0.58
48854;BMP280;34673;52.808;17.856;2023-02-07T16:16:33;102930.72;;;0.51
48854;BMP280;34673;52.808;17.856;2023-02-07T16:19:19;102934.16;;;0.52
48854;BMP280;34673;52.808;17.856;2023-02-07T16:21:55;102935.72;;;0.50
48854;BMP280;34673;52.808;17.856;2023-02-07T16:24:24;102934.69;;;0.48
48854;BMP280;34673;52.808;17.856;2023-02-07T16:26:55;102933.47;;;0.42
48854;BMP280;34673;52.808;17.856;2023-02-07T16:29:24;102929.69;;;0.37
48854;BMP280;34673;52.808;17.856;2023-02-07T16:31:53;102943.44;;;0.39
48854;BMP280;34673;52.808;17.856;2023-02-07T16:34:22;102949.41;;;0.40
48854;BMP280;34673;52.808;17.856;2023-02-07T16:36:54;102932.22;;;0.37
48854;BMP280;34673;52.808;17.856;2023-02-07T16:39:21;102939.88;;;0.37
48854;BMP280;34673;52.808;17.856;2023-02-07T16:41:59;102950.28;;;0.40
48854;BMP280;34673;52.808;17.856;2023-02-07T16:44:27;102949.41;;;0.40
48854;BMP280;34673;52.808;17.856;2023-02-07T16:46:56;102943.19;;;0.36